createdAt,value
2022-08-22T00:00:46.285Z,19.67
2022-08-22T00:01:46.347Z,19.65
2022-08-22T00:02:41.709Z,28.60
2022-08-22T00:02:45.630Z,25.72
2022-08-22T00:02:48.244Z,26.41
2022-08-22T00:02:54.565Z,21.82
2022-08-22T00:02:55.384Z,20.53
2022-08-22T00:02:56.263Z,27.15
2022-08-22T00:02:57.904Z,20.13
2022-08-22T00:03:07.733Z,21.61
2022-08-22T00:03:07.734Z,20.60
2022-08-22T00:03:47.295Z,19.58
2022-08-22T00:04:46.317Z,19.58
2022-08-22T00:05:46.236Z,19.60
2022-08-22T00:06:46.221Z,19.58
2022-08-22T00:07:46.197Z,19.58
2022-08-22T00:08:46.177Z,19.58
2022-08-22T00:09:46.227Z,19.60
2022-08-22T00:10:46.171Z,19.62
2022-08-22T00:11:46.209Z,19.62
2022-08-22T00:12:46.148Z,19.62
2022-08-22T00:13:46.131Z,19.62
2022-08-22T00:14:46.139Z,19.61
2022-08-22T00:15:46.149Z,19.62
2022-08-22T00:16:46.100Z,19.62
2022-08-22T00:17:46.139Z,19.64
2022-08-22T00:18:46.090Z,19.64
2022-08-22T00:19:46.060Z,19.64
2022-08-22T00:20:46.070Z,19.62
2022-08-22T00:21:46.059Z,19.62
2022-08-22T00:22:46.042Z,19.64
2022-08-22T00:23:46.081Z,19.64
2022-08-22T00:24:46.021Z,19.64
2022-08-22T00:25:46.011Z,19.67
2022-08-22T00:26:45.992Z,19.67
2022-08-22T00:27:45.984Z,19.65
2022-08-22T00:28:46.013Z,19.64
2022-08-22T00:29:45.977Z,19.64
2022-08-22T00:30:45.981Z,19.65
2022-08-22T00:31:45.943Z,19.62
2022-08-22T00:32:45.932Z,19.62
2022-08-22T00:33:45.974Z,19.61
2022-08-22T00:34:45.916Z,19.60
2022-08-22T00:35:45.891Z,19.58
2022-08-22T00:36:47.956Z,19.57
2022-08-22T00:37:45.915Z,19.53
2022-08-22T00:38:45.865Z,19.53
2022-08-22T00:39:45.888Z,19.49
2022-08-22T00:40:45.845Z,19.46
2022-08-22T00:41:45.879Z,19.43
2022-08-22T00:42:45.866Z,19.40
2022-08-22T00:43:45.846Z,19.38
2022-08-22T00:44:45.805Z,19.38
2022-08-22T00:45:45.899Z,19.35
2022-08-22T00:46:45.769Z,19.32
2022-08-22T00:47:45.824Z,19.30
2022-08-22T00:48:45.748Z,19.28
2022-08-22T00:49:45.738Z,19.25
2022-08-22T00:50:45.735Z,19.24
2022-08-22T00:51:45.735Z,19.23
2022-08-22T00:52:45.747Z,19.20
2022-08-22T00:53:45.740Z,19.17
2022-08-22T00:54:45.679Z,19.15
2022-08-22T00:55:45.723Z,19.15
2022-08-22T00:56:46.040Z,19.15
2022-08-22T00:57:45.671Z,19.15
2022-08-22T00:58:45.651Z,19.15
2022-08-22T00:59:45.662Z,19.15
2022-08-22T01:00:45.631Z,19.13
2022-08-22T01:01:45.621Z,19.12
2022-08-22T01:02:48.117Z,19.12
2022-08-22T01:03:46.583Z,19.09
2022-08-22T01:04:45.586Z,19.07
2022-08-22T01:05:45.593Z,19.05
2022-08-22T01:06:45.572Z,18.97
2022-08-22T01:07:45.553Z,18.96
2022-08-22T01:08:45.533Z,18.94
2022-08-22T01:09:45.534Z,18.93
2022-08-22T01:10:45.534Z,18.93
2022-08-22T01:11:45.513Z,18.89
2022-08-22T01:12:45.524Z,18.87
2022-08-22T01:13:45.497Z,18.89
2022-08-22T01:14:45.466Z,18.89
2022-08-22T01:15:45.475Z,18.86
2022-08-22T01:16:45.454Z,18.83
2022-08-22T01:17:45.465Z,18.83
2022-08-22T01:18:45.442Z,18.83
2022-08-22T01:19:45.455Z,18.84
2022-08-22T01:20:45.404Z,18.86
2022-08-22T01:21:45.407Z,18.84
2022-08-22T01:22:45.387Z,18.84
2022-08-22T01:23:45.377Z,18.84
2022-08-22T01:24:45.368Z,18.84
2022-08-22T01:25:45.357Z,18.84
2022-08-22T01:26:45.357Z,18.83
2022-08-22T01:27:45.328Z,18.82
2022-08-22T01:28:45.340Z,18.82
2022-08-22T01:29:45.329Z,18.78
2022-08-22T01:30:45.297Z,18.79
2022-08-22T01:31:45.316Z,18.76
2022-08-22T01:32:45.280Z,18.75
2022-08-22T01:33:45.270Z,18.74
2022-08-22T01:34:45.250Z,18.72
2022-08-22T01:35:45.240Z,18.72
2022-08-22T01:36:45.240Z,18.72
2022-08-22T01:37:45.231Z,18.71
2022-08-22T01:38:45.211Z,18.69
2022-08-22T01:39:45.250Z,18.69
2022-08-22T01:40:53.443Z,18.68
2022-08-22T01:41:46.182Z,18.66
2022-08-22T01:42:45.181Z,18.65
2022-08-22T01:43:59.972Z,18.65
2022-08-22T01:44:46.152Z,18.62
2022-08-22T01:45:45.153Z,18.59
2022-08-22T01:46:45.142Z,18.56
2022-08-22T01:47:45.130Z,18.54
2022-08-22T01:48:45.103Z,18.51
2022-08-22T01:49:45.092Z,18.50
2022-08-22T01:50:45.114Z,18.47
2022-08-22T01:51:45.085Z,18.47
2022-08-22T01:52:45.054Z,18.46
2022-08-22T01:53:45.056Z,18.42
2022-08-22T01:54:45.055Z,18.42
2022-08-22T01:55:45.024Z,18.41
2022-08-22T01:56:45.053Z,18.38
2022-08-22T01:57:45.025Z,18.36
2022-08-22T01:58:44.987Z,18.35
2022-08-22T01:59:44.985Z,18.35
2022-08-22T02:00:45.025Z,18.34
2022-08-22T02:01:44.987Z,18.31
2022-08-22T02:02:44.937Z,18.29
2022-08-22T02:03:44.967Z,18.26
2022-08-22T02:04:44.925Z,18.23
2022-08-22T02:05:44.938Z,18.19
2022-08-22T02:06:44.938Z,18.17
2022-08-22T02:07:44.898Z,18.16
2022-08-22T02:08:44.992Z,18.11
2022-08-22T02:09:44.910Z,18.10
2022-08-22T02:10:44.868Z,18.10
2022-08-22T02:11:44.877Z,18.10
2022-08-22T02:12:44.859Z,18.09
2022-08-22T02:13:44.840Z,18.07
2022-08-22T02:14:44.835Z,18.07
2022-08-22T02:15:44.831Z,18.04
2022-08-22T02:16:44.820Z,18.02
2022-08-22T02:17:44.791Z,18.01
2022-08-22T02:18:44.810Z,18.02
2022-08-22T02:19:44.791Z,18.02
2022-08-22T02:20:44.752Z,18.01
2022-08-22T02:21:44.781Z,17.99
2022-08-22T02:22:44.913Z,17.95
2022-08-22T02:23:44.750Z,17.96
2022-08-22T02:24:44.703Z,17.94
2022-08-22T02:25:44.713Z,17.94
2022-08-22T02:26:44.724Z,17.92
2022-08-22T02:27:44.689Z,17.92
2022-08-22T02:28:56.986Z,17.89
2022-08-22T02:29:45.683Z,17.91
2022-08-22T02:30:44.690Z,17.91
2022-08-22T02:31:44.636Z,17.91
2022-08-22T02:32:44.655Z,17.91
2022-08-22T02:33:44.665Z,17.87
2022-08-22T02:34:44.625Z,17.84
2022-08-22T02:35:44.595Z,17.84
2022-08-22T02:36:44.594Z,17.84
2022-08-22T02:37:44.608Z,17.81
2022-08-22T02:38:44.596Z,17.79
2022-08-22T02:39:44.609Z,17.76
2022-08-22T02:40:44.535Z,17.74
2022-08-22T02:41:44.586Z,17.73
2022-08-22T02:42:44.538Z,17.68
2022-08-22T02:43:44.556Z,17.66
2022-08-22T02:44:44.534Z,17.63
2022-08-22T02:45:44.477Z,17.57
2022-08-22T02:46:44.477Z,17.57
2022-08-22T02:47:44.468Z,17.53
2022-08-22T02:48:44.470Z,17.51
2022-08-22T02:49:44.477Z,17.47
2022-08-22T02:50:44.428Z,17.45
2022-08-22T02:51:44.429Z,17.42
2022-08-22T02:52:44.400Z,17.42
2022-08-22T02:53:44.426Z,17.42
2022-08-22T02:54:44.399Z,17.40
2022-08-22T02:55:44.410Z,17.38
2022-08-22T02:56:44.378Z,17.38
2022-08-22T02:57:44.371Z,17.36
2022-08-22T02:58:44.361Z,17.36
2022-08-22T02:59:44.340Z,17.32
2022-08-22T03:00:44.365Z,17.28
2022-08-22T03:01:44.301Z,17.25
2022-08-22T03:02:44.341Z,17.27
2022-08-22T03:03:44.292Z,17.24
2022-08-22T03:04:44.281Z,17.24
2022-08-22T03:05:44.282Z,17.22
2022-08-22T03:06:44.283Z,17.22
2022-08-22T03:07:44.242Z,17.22
2022-08-22T03:08:50.950Z,17.22
2022-08-22T03:09:45.252Z,17.24
2022-08-22T03:10:44.213Z,17.21
2022-08-22T03:11:44.206Z,17.21
2022-08-22T03:12:44.202Z,17.20
2022-08-22T03:13:44.222Z,17.15
2022-08-22T03:14:44.185Z,17.10
2022-08-22T03:15:49.260Z,17.10
2022-08-22T03:16:45.166Z,17.07
2022-08-22T03:17:44.134Z,17.07
2022-08-22T03:18:44.146Z,17.07
2022-08-22T03:19:44.148Z,17.05
2022-08-22T03:20:44.127Z,17.03
2022-08-22T03:21:44.095Z,17.02
2022-08-22T03:22:44.106Z,17.00
2022-08-22T03:23:44.095Z,17.00
2022-08-22T03:24:44.086Z,16.99
2022-08-22T03:25:44.069Z,16.98
2022-08-22T03:26:44.052Z,16.99
2022-08-22T03:27:46.212Z,16.98
2022-08-22T03:28:58.890Z,16.96
2022-08-22T03:29:45.099Z,16.96
2022-08-22T03:30:44.042Z,16.98
2022-08-22T03:31:43.978Z,16.96
2022-08-22T03:32:43.975Z,16.95
2022-08-22T03:33:43.969Z,16.96
2022-08-22T03:34:43.977Z,16.95
2022-08-22T03:35:44.010Z,16.92
2022-08-22T03:36:43.974Z,16.92
2022-08-22T03:37:43.912Z,16.92
2022-08-22T03:38:43.960Z,16.91
2022-08-22T03:39:43.940Z,16.90
2022-08-22T03:40:43.950Z,16.88
2022-08-22T03:41:43.881Z,16.87
2022-08-22T03:42:43.901Z,16.87
2022-08-22T03:43:43.873Z,16.84
2022-08-22T03:44:43.859Z,16.82
2022-08-22T03:45:43.847Z,16.81
2022-08-22T03:46:43.881Z,16.81
2022-08-22T03:47:43.818Z,16.78
2022-08-22T03:48:43.802Z,16.77
2022-08-22T03:49:43.792Z,16.75
2022-08-22T03:50:43.833Z,16.73
2022-08-22T03:51:43.773Z,16.72
2022-08-22T03:52:43.800Z,16.70
2022-08-22T03:53:43.795Z,16.70
2022-08-22T03:54:44.764Z,16.72
2022-08-22T03:55:43.714Z,16.69
2022-08-22T03:56:43.724Z,16.69
2022-08-22T03:57:43.714Z,16.69
2022-08-22T03:58:43.685Z,16.67
2022-08-22T03:59:43.734Z,16.67
2022-08-22T04:00:43.732Z,16.65
2022-08-22T04:01:43.672Z,16.63
2022-08-22T04:02:44.364Z,16.60
2022-08-22T04:03:43.646Z,16.60
2022-08-22T04:04:43.625Z,16.59
2022-08-22T04:05:43.676Z,16.57
2022-08-22T04:06:43.684Z,16.57
2022-08-22T04:07:43.601Z,16.55
2022-08-22T04:08:43.908Z,16.54
2022-08-22T04:09:43.587Z,16.54
2022-08-22T04:10:43.564Z,16.52
2022-08-22T04:11:43.577Z,16.52
2022-08-22T04:12:43.566Z,16.51
2022-08-22T04:13:44.586Z,16.48
2022-08-22T04:14:43.606Z,16.48
2022-08-22T04:15:43.538Z,16.47
2022-08-22T04:16:43.527Z,16.45
2022-08-22T04:17:43.490Z,16.44
2022-08-22T04:18:43.498Z,16.44
2022-08-22T04:19:43.510Z,16.42
2022-08-22T04:20:43.459Z,16.40
2022-08-22T04:21:43.483Z,16.36
2022-08-22T04:22:43.503Z,16.36
2022-08-22T04:23:43.452Z,16.34
2022-08-22T04:24:43.473Z,16.36
2022-08-22T04:25:44.411Z,16.37
2022-08-22T04:26:43.402Z,16.36
2022-08-22T04:27:43.411Z,16.34
2022-08-22T04:28:43.392Z,16.34
2022-08-22T04:29:43.421Z,16.34
2022-08-22T04:30:43.419Z,16.34
2022-08-22T04:31:43.346Z,16.34
2022-08-22T04:32:43.339Z,16.34
2022-08-22T04:33:43.332Z,16.34
2022-08-22T04:34:43.314Z,16.33
2022-08-22T04:35:43.300Z,16.33
2022-08-22T04:36:43.322Z,16.32
2022-08-22T04:37:43.293Z,16.32
2022-08-22T04:38:43.253Z,16.32
2022-08-22T04:39:43.283Z,16.33
2022-08-22T04:40:43.231Z,16.32
2022-08-22T04:41:43.260Z,16.33
2022-08-22T04:42:43.214Z,16.33
2022-08-22T04:43:43.263Z,16.33
2022-08-22T04:44:43.234Z,16.34
2022-08-22T04:45:43.210Z,16.33
2022-08-22T04:46:43.212Z,16.32
2022-08-22T04:47:43.155Z,16.33
2022-08-22T04:48:43.209Z,16.33
2022-08-22T04:49:43.176Z,16.34
2022-08-22T04:50:43.483Z,16.33
2022-08-22T04:51:43.175Z,16.32
2022-08-22T04:52:43.116Z,16.33
2022-08-22T04:53:43.107Z,16.33
2022-08-22T04:54:43.101Z,16.32
2022-08-22T04:55:43.137Z,16.33
2022-08-22T04:56:43.084Z,16.33
2022-08-22T04:57:43.089Z,16.33
2022-08-22T04:58:43.077Z,16.33
2022-08-22T04:59:43.028Z,16.33
2022-08-22T05:00:43.045Z,16.34
2022-08-22T05:01:43.106Z,16.34
2022-08-22T05:02:43.019Z,16.34
2022-08-22T05:03:45.050Z,16.34
2022-08-22T05:04:43.047Z,16.34
2022-08-22T05:05:42.994Z,16.34
2022-08-22T05:06:42.958Z,16.34
2022-08-22T05:07:42.939Z,16.33
2022-08-22T05:08:43.018Z,16.34
2022-08-22T05:09:43.021Z,16.36
2022-08-22T05:10:42.910Z,16.37
2022-08-22T05:11:42.921Z,16.40
2022-08-22T05:12:42.902Z,16.41
2022-08-22T05:13:42.895Z,16.44
2022-08-22T05:14:42.881Z,16.42
2022-08-22T05:15:42.873Z,16.44
2022-08-22T05:16:42.977Z,16.44
2022-08-22T05:17:42.892Z,16.45
2022-08-22T05:18:42.833Z,16.47
2022-08-22T05:19:42.832Z,16.44
2022-08-22T05:20:42.812Z,16.45
2022-08-22T05:21:42.804Z,16.45
2022-08-22T05:22:42.803Z,16.42
2022-08-22T05:23:42.766Z,16.42
2022-08-22T05:24:42.794Z,16.44
2022-08-22T05:25:43.074Z,16.45
2022-08-22T05:26:42.746Z,16.47
2022-08-22T05:27:42.774Z,16.48
2022-08-22T05:28:42.727Z,16.47
2022-08-22T05:29:42.779Z,16.45
2022-08-22T05:30:42.717Z,16.47
2022-08-22T05:31:42.726Z,16.48
2022-08-22T05:32:42.746Z,16.48
2022-08-22T05:33:42.673Z,16.45
2022-08-22T05:34:42.656Z,16.47
2022-08-22T05:35:47.202Z,16.44
2022-08-22T05:36:43.628Z,16.44
2022-08-22T05:37:43.647Z,16.44
2022-08-22T05:38:42.626Z,16.45
2022-08-22T05:39:43.804Z,16.47
2022-08-22T05:40:42.638Z,16.50
2022-08-22T05:41:43.272Z,16.48
2022-08-22T05:42:42.599Z,16.50
2022-08-22T05:43:43.277Z,16.51
2022-08-22T05:44:42.611Z,16.51
2022-08-22T05:45:42.598Z,16.51
2022-08-22T05:46:42.606Z,16.55
2022-08-22T05:47:43.618Z,16.54
2022-08-22T05:48:42.538Z,16.57
2022-08-22T05:49:42.617Z,16.59
2022-08-22T05:50:42.552Z,16.59
2022-08-22T05:51:43.211Z,16.60
2022-08-22T05:52:42.510Z,16.59
2022-08-22T05:53:42.557Z,16.62
2022-08-22T05:54:42.467Z,16.63
2022-08-22T05:55:42.421Z,16.63
2022-08-22T05:56:42.431Z,16.63
2022-08-22T05:57:42.451Z,16.66
2022-08-22T05:58:42.390Z,16.65
2022-08-22T05:59:42.390Z,16.67
2022-08-22T06:00:42.360Z,16.70
2022-08-22T06:01:42.438Z,16.72
2022-08-22T06:02:42.354Z,16.73
2022-08-22T06:03:42.417Z,16.73
2022-08-22T06:04:42.332Z,16.78
2022-08-22T06:05:42.333Z,16.81
2022-08-22T06:06:42.343Z,16.87
2022-08-22T06:07:42.352Z,16.91
2022-08-22T06:08:42.363Z,16.95
2022-08-22T06:09:42.294Z,17.00
2022-08-22T06:10:42.444Z,17.03
2022-08-22T06:11:42.344Z,17.10
2022-08-22T06:12:43.399Z,17.17
2022-08-22T06:13:42.383Z,17.25
2022-08-22T06:14:42.255Z,17.33
2022-08-22T06:15:42.245Z,17.38
2022-08-22T06:16:47.475Z,17.42
2022-08-22T06:17:43.187Z,17.47
2022-08-22T06:18:42.195Z,17.51
2022-08-22T06:19:42.206Z,17.53
2022-08-22T06:20:42.205Z,17.53
2022-08-22T06:21:42.147Z,17.54
2022-08-22T06:22:42.166Z,17.53
2022-08-22T06:23:42.107Z,17.55
2022-08-22T06:24:42.094Z,17.60
2022-08-22T06:25:50.908Z,17.57
2022-08-22T06:26:49.205Z,17.60
2022-08-22T06:27:43.044Z,17.62
2022-08-22T06:28:54.796Z,17.63
2022-08-22T06:29:43.099Z,17.66
2022-08-22T06:30:42.094Z,17.66
2022-08-22T06:31:42.067Z,17.70
2022-08-22T06:32:59.388Z,17.70
2022-08-22T06:33:45.778Z,17.76
2022-08-22T06:34:42.091Z,17.80
2022-08-22T06:35:42.073Z,17.84
2022-08-22T06:36:41.985Z,17.89
2022-08-22T06:37:41.973Z,17.92
2022-08-22T06:38:42.006Z,17.95
2022-08-22T06:39:41.995Z,17.99
2022-08-22T06:40:41.926Z,18.02
2022-08-22T06:41:42.016Z,18.04
2022-08-22T06:42:41.926Z,18.07
2022-08-22T06:43:41.958Z,18.09
2022-08-22T06:44:41.904Z,18.11
2022-08-22T06:45:41.895Z,18.14
2022-08-22T06:46:41.946Z,18.17
2022-08-22T06:47:41.864Z,18.19
2022-08-22T06:48:41.868Z,18.20
2022-08-22T06:49:41.877Z,18.20
2022-08-22T06:50:41.892Z,18.21
2022-08-22T06:51:41.921Z,18.28
2022-08-22T06:52:41.849Z,18.34
2022-08-22T06:53:45.914Z,18.41
2022-08-22T06:54:42.849Z,18.53
2022-08-22T06:55:41.818Z,18.66
2022-08-22T06:56:41.779Z,18.84
2022-08-22T06:57:41.750Z,18.94
2022-08-22T06:58:41.740Z,19.05
2022-08-22T06:59:41.820Z,19.02
2022-08-22T07:00:41.744Z,19.01
2022-08-22T07:01:41.799Z,19.02
2022-08-22T07:02:41.720Z,19.06
2022-08-22T07:03:41.682Z,19.02
2022-08-22T07:04:41.702Z,19.02
2022-08-22T07:05:41.681Z,18.99
2022-08-22T07:06:41.681Z,18.96
2022-08-22T07:07:41.669Z,18.96
2022-08-22T07:08:41.644Z,18.94
2022-08-22T07:09:41.665Z,18.93
2022-08-22T07:10:42.323Z,18.93
2022-08-22T07:11:41.726Z,18.93
2022-08-22T07:12:42.380Z,18.96
2022-08-22T07:13:41.644Z,18.97
2022-08-22T07:14:41.589Z,19.01
2022-08-22T07:15:41.575Z,19.09
2022-08-22T07:16:41.551Z,19.13
2022-08-22T07:17:41.564Z,19.15
2022-08-22T07:18:41.523Z,19.21
2022-08-22T07:19:41.564Z,19.25
2022-08-22T07:20:41.549Z,19.32
2022-08-22T07:21:41.523Z,19.39
2022-08-22T07:22:41.526Z,19.42
2022-08-22T07:23:41.466Z,19.45
2022-08-22T07:24:41.506Z,19.47
2022-08-22T07:25:41.477Z,19.49
2022-08-22T07:26:41.417Z,19.50
2022-08-22T07:27:41.438Z,19.55
2022-08-22T07:28:50.789Z,19.58
2022-08-22T07:29:42.411Z,19.62
2022-08-22T07:30:41.410Z,19.65
2022-08-22T07:31:41.418Z,19.64
2022-08-22T07:32:41.398Z,19.67
2022-08-22T07:33:41.357Z,19.72
2022-08-22T07:34:41.365Z,19.76
2022-08-22T07:35:41.331Z,19.78
2022-08-22T07:36:41.357Z,19.92
2022-08-22T07:37:41.440Z,20.10
2022-08-22T07:38:41.310Z,20.20
2022-08-22T07:39:41.320Z,20.25
2022-08-22T07:40:41.309Z,20.27
2022-08-22T07:41:41.358Z,20.30
2022-08-22T07:42:41.281Z,20.31
2022-08-22T07:43:41.320Z,20.27
2022-08-22T07:44:41.305Z,20.26
2022-08-22T07:45:41.242Z,20.25
2022-08-22T07:46:41.272Z,20.25
2022-08-22T07:47:41.221Z,20.26
2022-08-22T07:48:59.510Z,20.26
2022-08-22T07:49:45.919Z,20.25
2022-08-22T07:50:42.172Z,20.25
2022-08-22T07:51:41.205Z,20.26
2022-08-22T07:52:41.193Z,20.27
2022-08-22T07:53:41.162Z,20.27
2022-08-22T07:54:41.136Z,20.27
2022-08-22T07:55:48.483Z,20.31
2022-08-22T07:56:42.123Z,20.30
2022-08-22T07:57:41.113Z,20.30
2022-08-22T07:58:41.093Z,20.30
2022-08-22T07:59:41.085Z,20.33
2022-08-22T08:00:41.055Z,20.34
2022-08-22T08:01:41.095Z,20.37
2022-08-22T08:02:41.075Z,20.38
2022-08-22T08:03:41.026Z,20.42
2022-08-22T08:04:41.028Z,20.48
2022-08-22T08:05:41.006Z,20.51
2022-08-22T08:06:40.987Z,20.53
2022-08-22T08:07:41.017Z,20.56
2022-08-22T08:08:40.987Z,20.56
2022-08-22T08:09:40.965Z,20.57
2022-08-22T08:10:40.947Z,20.60
2022-08-22T08:11:40.940Z,20.63
2022-08-22T08:12:40.938Z,20.64
2022-08-22T08:13:40.967Z,20.68
2022-08-22T08:14:40.926Z,20.68
2022-08-22T08:15:40.908Z,20.69
2022-08-22T08:16:40.989Z,20.73
2022-08-22T08:17:40.896Z,20.78
2022-08-22T08:18:40.861Z,20.82
2022-08-22T08:19:40.869Z,20.87
2022-08-22T08:20:40.890Z,20.90
2022-08-22T08:21:40.871Z,20.91
2022-08-22T08:22:40.832Z,20.94
2022-08-22T08:23:40.812Z,20.97
2022-08-22T08:24:43.390Z,21.01
2022-08-22T08:25:40.792Z,21.05
2022-08-22T08:26:40.812Z,21.09
2022-08-22T08:27:40.768Z,21.12
2022-08-22T08:28:40.767Z,21.15
2022-08-22T08:29:40.773Z,21.16
2022-08-22T08:30:40.743Z,21.21
2022-08-22T08:31:44.944Z,21.27
2022-08-22T08:32:40.736Z,21.33
2022-08-22T08:33:40.723Z,21.37
2022-08-22T08:34:40.724Z,21.42
2022-08-22T08:35:42.406Z,21.48
2022-08-22T08:36:41.685Z,21.56
2022-08-22T08:37:40.695Z,21.64
2022-08-22T08:38:40.766Z,21.68
2022-08-22T08:39:40.704Z,21.74
2022-08-22T08:40:40.642Z,21.75
2022-08-22T08:41:40.646Z,21.77
2022-08-22T08:42:40.596Z,21.89
2022-08-22T08:43:40.621Z,21.96
2022-08-22T08:44:40.604Z,22.05
2022-08-22T08:45:40.574Z,22.12
2022-08-22T08:46:40.557Z,22.14
2022-08-22T08:47:40.549Z,22.14
2022-08-22T08:48:40.557Z,22.12
2022-08-22T08:49:42.211Z,22.11
2022-08-22T08:50:40.529Z,22.12
2022-08-22T08:51:40.517Z,22.12
2022-08-22T08:52:40.519Z,22.14
2022-08-22T08:53:43.285Z,22.14
2022-08-22T08:54:40.469Z,22.15
2022-08-22T08:55:40.468Z,22.15
2022-08-22T08:56:40.461Z,22.15
2022-08-22T08:57:41.458Z,22.14
2022-08-22T08:58:40.479Z,22.14
2022-08-22T08:59:44.273Z,22.14
2022-08-22T09:00:40.433Z,22.14
2022-08-22T09:01:40.526Z,22.15
2022-08-22T09:02:42.451Z,22.19
2022-08-22T09:03:40.401Z,22.20
2022-08-22T09:04:40.404Z,22.23
2022-08-22T09:05:40.373Z,22.26
2022-08-22T09:06:42.502Z,22.26
2022-08-22T09:07:40.342Z,22.30
2022-08-22T09:08:40.320Z,22.35
2022-08-22T09:09:40.342Z,22.41
2022-08-22T09:10:40.313Z,22.45
2022-08-22T09:11:40.304Z,22.51
2022-08-22T09:12:52.251Z,22.52
2022-08-22T09:13:41.314Z,22.56
2022-08-22T09:14:40.272Z,22.61
2022-08-22T09:15:40.285Z,22.66
2022-08-22T09:16:45.018Z,22.69
2022-08-22T09:17:41.244Z,22.74
2022-08-22T09:18:40.235Z,22.81
2022-08-22T09:19:40.226Z,22.86
2022-08-22T09:20:40.215Z,22.91
2022-08-22T09:21:40.207Z,22.96
2022-08-22T09:22:50.846Z,23.00
2022-08-22T09:23:41.198Z,23.03
2022-08-22T09:24:40.170Z,23.07
2022-08-22T09:25:40.278Z,23.12
2022-08-22T09:26:40.157Z,23.16
2022-08-22T09:27:40.202Z,23.19
2022-08-22T09:28:40.158Z,23.26
2022-08-22T09:30:41.089Z,23.38
2022-08-22T09:31:51.541Z,23.41
2022-08-22T09:32:41.129Z,23.44
2022-08-22T09:33:40.098Z,23.47
2022-08-22T09:34:40.089Z,23.53
2022-08-22T09:35:40.071Z,23.59
2022-08-22T09:36:40.031Z,23.67
2022-08-22T09:37:40.034Z,23.77
2022-08-22T09:38:40.041Z,23.82
2022-08-22T09:39:41.097Z,23.89
2022-08-22T09:40:39.981Z,23.97
2022-08-22T09:41:39.990Z,24.02
2022-08-22T09:42:39.970Z,24.08
2022-08-22T09:43:44.759Z,24.14
2022-08-22T09:44:40.953Z,24.18
2022-08-22T09:45:39.943Z,24.24
2022-08-22T09:46:39.923Z,24.33
2022-08-22T09:47:39.961Z,24.39
2022-08-22T09:48:39.915Z,24.45
2022-08-22T09:49:39.892Z,24.49
2022-08-22T09:50:39.874Z,24.55
2022-08-22T09:51:39.875Z,24.66
2022-08-22T09:52:39.908Z,24.74
2022-08-22T09:53:39.876Z,24.82
2022-08-22T09:54:39.843Z,24.84
2022-08-22T09:55:39.850Z,24.87
2022-08-22T09:56:39.826Z,24.90
2022-08-22T09:57:39.868Z,24.93
2022-08-22T09:58:41.765Z,24.94
2022-08-22T09:59:39.797Z,24.94
2022-08-22T10:00:40.471Z,24.97
2022-08-22T10:01:39.789Z,24.99
2022-08-22T10:02:43.661Z,25.02
2022-08-22T10:03:39.758Z,25.09
2022-08-22T10:04:39.757Z,25.16
2022-08-22T10:05:44.405Z,25.22
2022-08-22T10:06:40.720Z,25.26
2022-08-22T10:07:39.740Z,25.30
2022-08-22T10:08:39.747Z,25.31
2022-08-22T10:09:39.688Z,25.35
2022-08-22T10:10:39.719Z,25.38
2022-08-22T10:11:42.323Z,25.39
2022-08-22T10:12:39.652Z,25.42
2022-08-22T10:13:40.682Z,25.44
2022-08-22T10:14:39.684Z,25.49
2022-08-22T10:15:39.644Z,25.51
2022-08-22T10:16:39.615Z,25.49
2022-08-22T10:17:40.837Z,25.49
2022-08-22T10:18:43.858Z,25.51
2022-08-22T10:19:40.606Z,25.54
2022-08-22T10:20:39.644Z,25.54
2022-08-22T10:21:40.556Z,25.59
2022-08-22T10:22:39.564Z,25.61
2022-08-22T10:23:39.639Z,25.66
2022-08-22T10:24:44.136Z,25.74
2022-08-22T10:25:41.796Z,25.76
2022-08-22T10:26:39.524Z,25.81
2022-08-22T10:27:39.540Z,25.86
2022-08-22T10:28:39.487Z,25.94
2022-08-22T10:29:39.487Z,26.01
2022-08-22T10:30:39.479Z,26.11
2022-08-22T10:31:45.114Z,26.19
2022-08-22T10:32:40.455Z,26.29
2022-08-22T10:33:39.823Z,26.39
2022-08-22T10:34:39.419Z,26.50
2022-08-22T10:35:39.410Z,26.61
2022-08-22T10:36:39.389Z,26.71
2022-08-22T10:37:39.605Z,26.79
2022-08-22T10:38:44.199Z,26.84
2022-08-22T10:39:40.437Z,26.91
2022-08-22T10:40:39.360Z,26.96
2022-08-22T10:41:39.361Z,27.06
2022-08-22T10:42:39.372Z,27.16
2022-08-22T10:43:40.914Z,27.23
2022-08-22T10:44:39.322Z,27.25
2022-08-22T10:45:39.344Z,27.28
2022-08-22T10:46:39.303Z,27.28
2022-08-22T10:47:39.332Z,27.34
2022-08-22T10:48:39.294Z,27.38
2022-08-22T10:49:39.269Z,27.40
2022-08-22T10:50:39.274Z,27.46
2022-08-22T10:51:39.214Z,27.43
2022-08-22T10:52:39.225Z,27.46
2022-08-22T10:53:39.245Z,27.52
2022-08-22T10:54:39.206Z,27.63
2022-08-22T10:55:39.195Z,27.66
2022-08-22T10:56:39.194Z,27.66
2022-08-22T10:57:39.147Z,27.69
2022-08-22T10:58:39.173Z,27.69
2022-08-22T10:59:39.247Z,27.69
2022-08-22T11:00:39.170Z,27.72
2022-08-22T11:01:42.152Z,27.77
2022-08-22T11:02:39.125Z,27.84
2022-08-22T11:03:39.089Z,27.90
2022-08-22T11:04:39.079Z,27.96
2022-08-22T11:05:39.297Z,28.03
2022-08-22T11:06:39.111Z,28.11
2022-08-22T11:07:39.509Z,28.20
2022-08-22T11:08:39.060Z,28.15
2022-08-22T11:09:39.034Z,28.13
2022-08-22T11:10:39.036Z,28.08
2022-08-22T11:11:39.062Z,28.05
2022-08-22T11:12:41.728Z,28.01
2022-08-22T11:13:38.992Z,27.96
2022-08-22T11:14:38.993Z,28.01
2022-08-22T11:15:39.003Z,28.05
2022-08-22T11:16:41.883Z,28.09
2022-08-22T11:17:42.614Z,28.14
2022-08-22T11:18:39.951Z,28.20
2022-08-22T11:19:40.027Z,28.21
2022-08-22T11:20:39.136Z,28.21
2022-08-22T11:21:38.915Z,28.15
2022-08-22T11:22:38.906Z,28.18
2022-08-22T11:23:38.906Z,28.17
2022-08-22T11:24:53.919Z,28.18
2022-08-22T11:25:39.877Z,28.18
2022-08-22T11:26:46.807Z,28.23
2022-08-22T11:27:40.846Z,28.28
2022-08-22T11:28:38.853Z,28.25
2022-08-22T11:29:38.815Z,28.20
2022-08-22T11:30:44.284Z,28.18
2022-08-22T11:31:39.812Z,28.18
2022-08-22T11:32:39.880Z,28.17
2022-08-22T11:33:46.244Z,28.27
2022-08-22T11:34:39.782Z,28.39
2022-08-22T11:35:38.808Z,28.46
2022-08-22T11:36:38.762Z,28.55
2022-08-22T11:37:42.956Z,28.65
2022-08-22T11:38:39.766Z,28.74
2022-08-22T11:39:39.749Z,28.88
2022-08-22T11:40:38.753Z,29.00
2022-08-22T11:41:38.751Z,29.14
2022-08-22T11:42:38.693Z,29.15
2022-08-22T11:43:39.693Z,29.15
2022-08-22T11:44:49.952Z,29.14
2022-08-22T11:45:39.685Z,29.21
2022-08-22T11:46:38.634Z,29.27
2022-08-22T11:47:38.617Z,29.21
2022-08-22T11:48:38.658Z,29.15
2022-08-22T11:49:38.616Z,29.17
2022-08-22T11:50:38.617Z,29.20
2022-08-22T11:51:38.603Z,29.32
2022-08-22T11:52:38.617Z,29.35
2022-08-22T11:53:38.566Z,29.45
2022-08-22T11:54:38.548Z,29.58
2022-08-22T11:55:38.550Z,29.71
2022-08-22T11:56:41.558Z,29.73
2022-08-22T11:57:38.509Z,29.79
2022-08-22T11:58:38.630Z,29.89
2022-08-22T11:59:40.144Z,30.03
2022-08-22T12:00:38.491Z,30.18
2022-08-22T12:01:38.511Z,30.23
2022-08-22T12:02:38.542Z,30.28
2022-08-22T12:03:38.465Z,30.29
2022-08-22T12:04:38.452Z,30.29
2022-08-22T12:05:38.432Z,30.28
2022-08-22T12:06:38.443Z,30.38
2022-08-22T12:07:38.405Z,30.37
2022-08-22T12:08:38.403Z,30.40
2022-08-22T12:09:38.404Z,30.44
2022-08-22T12:10:38.397Z,30.44
2022-08-22T12:11:38.362Z,30.51
2022-08-22T12:12:38.395Z,30.54
2022-08-22T12:13:38.366Z,30.51
2022-08-22T12:14:38.333Z,30.60
2022-08-22T12:15:38.322Z,30.67
2022-08-22T12:16:38.347Z,30.81
2022-08-22T12:17:55.236Z,31.01
2022-08-22T12:18:39.298Z,31.18
2022-08-22T12:19:48.872Z,31.23
2022-08-22T12:20:39.286Z,31.25
2022-08-22T12:21:39.259Z,31.49
2022-08-22T12:22:38.260Z,31.92
2022-08-22T12:23:48.749Z,32.39
2022-08-22T12:24:39.220Z,33.09
2022-08-22T12:25:38.220Z,33.92
2022-08-22T12:26:39.361Z,34.87
2022-08-22T12:27:38.211Z,35.92
2022-08-22T12:28:38.183Z,36.99
2022-08-22T12:29:44.746Z,38.06
2022-08-22T12:30:39.186Z,38.81
2022-08-22T12:31:38.170Z,39.62
2022-08-22T12:32:38.166Z,40.42
2022-08-22T12:33:39.137Z,41.36
2022-08-22T12:34:38.153Z,41.92
2022-08-22T12:35:38.125Z,42.58
2022-08-22T12:36:38.107Z,43.37
2022-08-22T12:37:52.031Z,44.25
2022-08-22T12:38:39.117Z,44.91
2022-08-22T12:39:41.161Z,45.17
2022-08-22T12:40:38.079Z,45.70
2022-08-22T12:41:39.068Z,46.31
2022-08-22T12:42:38.049Z,46.89
2022-08-22T12:43:42.452Z,47.41
2022-08-22T12:44:38.037Z,47.85
2022-08-22T12:45:40.442Z,48.25